createdAt,value
2019-03-31T00:01:12.127Z,5.77
2019-03-31T00:06:08.949Z,5.90
2019-03-31T00:11:05.635Z,5.47
2019-03-31T00:16:02.661Z,5.67
2019-03-31T00:20:59.285Z,5.90
2019-03-31T00:25:55.919Z,6.03
2019-03-31T00:30:53.350Z,7.17
2019-03-31T00:35:49.947Z,6.80
2019-03-31T00:40:46.589Z,6.57
2019-03-31T00:45:43.249Z,5.73
2019-03-31T00:50:40.014Z,6.43
2019-03-31T00:55:36.601Z,6.50
2019-03-31T01:00:51.815Z,6.50
2019-03-31T01:05:48.865Z,7.30
2019-03-31T01:10:46.921Z,7.03
2019-03-31T01:15:43.599Z,6.27
2019-03-31T01:20:40.313Z,6.70
2019-03-31T01:25:36.880Z,6.83
2019-03-31T01:30:33.519Z,7.10
2019-03-31T01:35:30.480Z,7.33
2019-03-31T01:40:27.159Z,6.77
2019-03-31T01:45:24.114Z,7.27
2019-03-31T01:50:22.525Z,7.20
2019-03-31T01:55:19.296Z,7.00
2019-03-31T02:00:30.331Z,7.37
2019-03-31T02:05:26.986Z,6.77
2019-03-31T02:10:23.779Z,7.47
2019-03-31T02:15:24.329Z,7.17
2019-03-31T02:20:21.095Z,7.03
2019-03-31T02:25:17.704Z,7.70
2019-03-31T02:30:14.873Z,7.37
2019-03-31T02:35:11.857Z,7.47
2019-03-31T02:40:09.816Z,8.03
2019-03-31T02:45:06.779Z,7.23
2019-03-31T02:50:03.445Z,7.23
2019-03-31T02:55:00.564Z,7.43
2019-03-31T02:59:58.817Z,7.60
2019-03-31T03:04:58.122Z,7.23
2019-03-31T03:09:57.121Z,7.80
2019-03-31T03:14:56.482Z,7.17
2019-03-31T03:19:53.205Z,7.90
2019-03-31T03:24:49.759Z,7.40
2019-03-31T03:29:46.452Z,7.53
2019-03-31T03:34:44.073Z,7.60
2019-03-31T03:39:40.701Z,7.30
2019-03-31T03:44:37.300Z,8.10
2019-03-31T03:49:33.857Z,7.73
2019-03-31T03:54:30.496Z,7.67
2019-03-31T03:59:27.162Z,7.43
2019-03-31T04:04:23.740Z,7.53
2019-03-31T04:09:20.337Z,8.37
2019-03-31T04:14:17.129Z,8.10
2019-03-31T04:19:13.731Z,8.07
2019-03-31T04:24:10.565Z,8.13
2019-03-31T04:29:07.224Z,9.20
2019-03-31T04:34:03.881Z,8.13
2019-03-31T04:39:00.912Z,8.43
2019-03-31T04:43:57.635Z,9.50
2019-03-31T04:48:54.271Z,9.67
2019-03-31T04:53:51.893Z,9.47
2019-03-31T04:58:48.500Z,9.80
2019-03-31T05:03:45.155Z,9.37
2019-03-31T05:08:41.776Z,10.20
2019-03-31T05:13:38.373Z,9.93
2019-03-31T05:18:35.109Z,10.00
2019-03-31T05:23:31.757Z,9.60
2019-03-31T05:28:28.407Z,9.60
2019-03-31T05:33:24.982Z,10.40
2019-03-31T05:38:21.621Z,10.30
2019-03-31T05:43:18.215Z,10.13
2019-03-31T05:48:14.928Z,9.63
2019-03-31T05:53:11.503Z,10.53
2019-03-31T05:58:11.286Z,11.17
2019-03-31T06:03:07.946Z,10.33
2019-03-31T06:08:04.662Z,11.53
2019-03-31T06:13:01.264Z,10.40
2019-03-31T06:17:57.948Z,11.20
2019-03-31T06:22:54.562Z,11.80
2019-03-31T06:27:51.195Z,11.67
2019-03-31T06:32:47.795Z,11.13
2019-03-31T06:37:46.453Z,11.20
2019-03-31T06:42:43.071Z,10.60
2019-03-31T06:47:39.659Z,11.80
2019-03-31T06:52:36.319Z,10.70
2019-03-31T06:57:32.972Z,10.87
2019-03-31T07:02:29.648Z,11.60
2019-03-31T07:07:26.259Z,11.13
2019-03-31T07:12:22.780Z,10.13
2019-03-31T07:17:19.436Z,9.73
2019-03-31T07:22:16.081Z,9.73
2019-03-31T07:27:12.651Z,10.57
2019-03-31T07:32:09.583Z,10.17
2019-03-31T07:37:06.340Z,11.13
2019-03-31T07:42:03.424Z,11.07
2019-03-31T07:47:01.194Z,12.13
2019-03-31T07:51:57.947Z,10.80
2019-03-31T07:56:54.534Z,11.60
2019-03-31T08:01:51.131Z,11.27
2019-03-31T08:06:47.718Z,10.90
2019-03-31T08:11:45.348Z,11.53
2019-03-31T08:16:42.001Z,10.67
2019-03-31T08:21:38.563Z,10.63
2019-03-31T08:26:35.206Z,10.80
2019-03-31T08:31:31.893Z,12.07
2019-03-31T08:36:28.771Z,10.50
2019-03-31T08:41:25.480Z,14.53
2019-03-31T08:46:22.269Z,14.47
2019-03-31T08:51:18.897Z,14.67
2019-03-31T08:56:15.550Z,15.30
2019-03-31T09:01:14.502Z,15.00
2019-03-31T09:06:12.784Z,15.27
2019-03-31T09:11:09.368Z,14.90
2019-03-31T09:16:06.088Z,14.03
2019-03-31T09:21:02.700Z,13.90
2019-03-31T09:25:59.284Z,13.87
2019-03-31T09:30:55.992Z,14.53
2019-03-31T09:35:54.826Z,13.60
2019-03-31T09:40:51.540Z,12.73
2019-03-31T09:45:48.146Z,12.70
2019-03-31T09:50:44.999Z,12.97
2019-03-31T09:55:43.775Z,12.23
2019-03-31T10:00:49.491Z,12.47
2019-03-31T10:05:48.163Z,11.33
2019-03-31T10:10:45.209Z,12.70
2019-03-31T10:15:41.808Z,12.53
2019-03-31T10:20:38.495Z,12.00
2019-03-31T10:25:35.229Z,12.30
2019-03-31T10:30:36.810Z,13.13
2019-03-31T10:35:33.362Z,12.97
2019-03-31T10:40:32.267Z,12.20
2019-03-31T10:45:28.921Z,12.23
2019-03-31T10:50:25.793Z,11.63
2019-03-31T10:55:22.438Z,11.90
2019-03-31T11:00:32.850Z,12.17
2019-03-31T11:05:31.133Z,12.27
2019-03-31T11:10:27.792Z,12.07
2019-03-31T11:15:24.373Z,10.93
2019-03-31T11:20:21.213Z,12.23
2019-03-31T11:25:22.062Z,12.23
2019-03-31T11:30:16.661Z,12.53
2019-03-31T11:35:13.705Z,11.90
2019-03-31T11:40:10.865Z,11.47
2019-03-31T11:45:08.331Z,12.03
2019-03-31T11:50:05.751Z,11.60
2019-03-31T11:55:02.312Z,11.63
2019-03-31T11:59:58.955Z,11.93
2019-03-31T12:04:55.633Z,11.90
2019-03-31T12:09:52.370Z,11.73
2019-03-31T12:14:59.841Z,11.50
2019-03-31T12:19:48.952Z,11.30
2019-03-31T12:24:45.720Z,10.63
2019-03-31T12:29:42.475Z,11.07
2019-03-31T12:34:39.232Z,10.70
2019-03-31T12:39:35.915Z,11.03
2019-03-31T12:44:33.609Z,11.47
2019-03-31T12:49:30.314Z,10.93
2019-03-31T12:54:27.050Z,9.90
2019-03-31T12:59:27.074Z,10.93
2019-03-31T13:04:22.259Z,10.57
2019-03-31T13:09:18.940Z,9.23
2019-03-31T13:14:16.118Z,9.73
2019-03-31T13:19:12.778Z,9.67
2019-03-31T13:24:11.127Z,9.43
2019-03-31T13:29:08.780Z,9.30
2019-03-31T13:34:08.714Z,8.93
2019-03-31T13:39:08.786Z,9.03
2019-03-31T13:44:05.629Z,9.47
2019-03-31T13:49:05.344Z,8.93
2019-03-31T13:54:05.694Z,8.00
2019-03-31T13:59:09.090Z,7.27
2019-03-31T14:04:27.181Z,7.83
2019-03-31T14:09:45.833Z,7.00
2019-03-31T14:15:28.305Z,7.60
2019-03-31T14:20:18.637Z,6.77
2019-03-31T14:25:25.308Z,7.47
2019-03-31T14:30:41.898Z,7.13
2019-03-31T14:35:38.692Z,6.27
2019-03-31T14:40:41.069Z,5.40
2019-03-31T14:45:41.668Z,6.07
2019-03-31T14:50:40.213Z,6.20
2019-03-31T14:55:36.892Z,5.53
2019-03-31T15:00:33.576Z,5.80
2019-03-31T15:05:30.347Z,5.37
2019-03-31T15:10:27.076Z,5.43
2019-03-31T15:15:23.741Z,5.70
2019-03-31T15:20:22.845Z,5.70
2019-03-31T15:25:20.587Z,5.40
2019-03-31T15:30:18.006Z,5.90
2019-03-31T15:35:14.943Z,5.93
2019-03-31T15:40:13.808Z,5.40
2019-03-31T15:45:10.985Z,6.27
2019-03-31T15:50:09.038Z,5.93
2019-03-31T15:55:06.182Z,6.63
2019-03-31T16:00:05.748Z,5.67
2019-03-31T16:05:03.410Z,5.63
2019-03-31T16:09:59.233Z,5.50
2019-03-31T16:28:30.568Z,5.37
2019-03-31T16:33:26.393Z,5.40
2019-03-31T16:38:25.510Z,4.93
2019-03-31T16:43:19.817Z,4.97
2019-03-31T16:48:15.842Z,5.07
2019-03-31T16:53:11.673Z,4.97
2019-03-31T16:58:09.432Z,4.53
2019-03-31T17:03:05.101Z,4.97
2019-03-31T17:08:01.040Z,4.90
2019-03-31T17:12:58.309Z,4.47
2019-03-31T17:17:54.206Z,5.03
2019-03-31T17:22:50.156Z,4.87
2019-03-31T17:27:46.978Z,5.30
2019-03-31T17:32:42.885Z,4.73
2019-03-31T17:37:38.722Z,4.57
2019-03-31T17:42:34.731Z,4.43
2019-03-31T17:47:30.539Z,4.80
2019-03-31T17:52:26.522Z,4.73
2019-03-31T17:57:22.448Z,5.07
2019-03-31T18:02:18.233Z,4.33
2019-03-31T18:07:14.007Z,5.03
2019-03-31T18:12:09.818Z,5.00
2019-03-31T18:17:05.684Z,5.40
2019-03-31T18:22:15.580Z,5.03
2019-03-31T18:26:59.276Z,5.23
2019-03-31T18:31:55.297Z,6.00
2019-03-31T18:36:51.174Z,5.40
2019-03-31T18:41:46.927Z,5.77
2019-03-31T18:46:42.957Z,5.67
2019-03-31T18:51:38.794Z,6.17
2019-03-31T18:56:45.519Z,5.93
2019-03-31T19:01:52.148Z,5.43
2019-03-31T19:06:54.736Z,5.23
2019-03-31T19:12:12.323Z,5.77
2019-03-31T19:17:19.865Z,6.07
2019-03-31T19:22:33.154Z,6.03
2019-03-31T19:27:43.199Z,5.77
2019-03-31T19:32:57.916Z,6.20
2019-03-31T19:38:14.185Z,6.23
2019-03-31T19:43:35.291Z,6.50
2019-03-31T19:48:38.386Z,6.93
2019-03-31T19:53:54.826Z,7.40
2019-03-31T19:59:08.389Z,7.90
2019-03-31T20:04:22.996Z,8.03
2019-03-31T20:09:43.797Z,7.37
2019-03-31T20:15:04.402Z,7.53
2019-03-31T20:20:13.068Z,8.43
2019-03-31T20:25:16.353Z,8.07
2019-03-31T20:30:32.789Z,8.13
2019-03-31T20:35:40.489Z,8.90
2019-03-31T20:40:40.982Z,8.57
2019-03-31T20:45:36.895Z,8.63
2019-03-31T20:50:32.741Z,8.87
2019-03-31T20:55:28.513Z,9.07
2019-03-31T21:00:28.675Z,9.13
2019-03-31T21:05:29.738Z,8.60
2019-03-31T21:10:25.617Z,8.03
2019-03-31T21:15:21.886Z,8.30
2019-03-31T21:20:17.978Z,9.67
2019-03-31T21:25:14.231Z,8.67
2019-03-31T21:30:10.413Z,8.17
2019-03-31T21:35:07.051Z,8.30
2019-03-31T21:40:03.456Z,8.60
2019-03-31T21:45:07.435Z,9.43
2019-03-31T21:50:03.475Z,8.37
2019-03-31T21:55:01.044Z,9.00
2019-03-31T22:00:05.774Z,8.37
2019-03-31T22:05:03.239Z,8.43
2019-03-31T22:09:59.260Z,8.53
2019-03-31T22:14:57.796Z,8.73
2019-03-31T22:19:57.057Z,9.30
2019-03-31T22:24:53.012Z,9.27
2019-03-31T22:29:49.435Z,8.63
2019-03-31T22:34:45.359Z,9.00
2019-03-31T22:39:41.313Z,8.90
2019-03-31T22:44:37.783Z,9.53
2019-03-31T22:49:33.896Z,9.10
2019-03-31T22:54:30.044Z,9.37
2019-03-31T22:59:26.141Z,10.30
2019-03-31T23:04:22.797Z,9.77
2019-03-31T23:09:18.778Z,9.00
2019-03-31T23:14:15.496Z,9.10
2019-03-31T23:19:15.008Z,9.53
2019-03-31T23:24:10.916Z,8.77
2019-03-31T23:29:07.198Z,9.10
2019-03-31T23:34:03.307Z,9.23
2019-03-31T23:38:59.213Z,8.80
2019-03-31T23:43:55.326Z,9.43
2019-03-31T23:48:51.306Z,9.90
2019-03-31T23:53:47.226Z,8.73
2019-03-31T23:58:43.226Z,8.93
